Time;durP1;ratioP1;P1;durP2;ratioP2;P2;SDS_P1;SDS_P2;PMS_P1;PMS_P2;Temp;Humidity;BMP_temperature;BMP_pressure;BME280_temperature;BME280_humidity;BME280_pressure;Samples;Min_cycle;Max_cycle;Signal;HPM_P1;HPM_P2
2023/12/23 00:01:00;;;;;;;1.30;1.30;;;7.20;76.90;;;;;;5052866;28;20242;-62
2023/12/23 00:03:27;;;;;;;1.40;1.40;;;7.20;78.20;;;;;;5046262;28;20271;-62
2023/12/23 00:05:54;;;;;;;1.40;1.40;;;7.20;77.90;;;;;;5046649;28;20248;-63
2023/12/23 00:08:20;;;;;;;1.50;1.50;;;7.20;78.30;;;;;;5051383;28;20231;-61
2023/12/23 00:10:47;;;;;;;1.30;1.30;;;7.20;78.70;;;;;;5050687;28;20214;-63
2023/12/23 00:13:13;;;;;;;1.40;1.40;;;7.10;79.10;;;;;;5040218;28;20639;-62
2023/12/23 00:15:40;;;;;;;1.40;1.30;;;7.20;79.00;;;;;;5047981;28;20237;-63
2023/12/23 00:18:06;;;;;;;1.30;1.30;;;7.10;79.40;;;;;;5051971;28;20397;-63
2023/12/23 00:20:33;;;;;;;1.50;1.40;;;7.10;79.40;;;;;;5039272;28;20639;-61
2023/12/23 00:22:59;;;;;;;1.27;1.27;;;7.10;79.40;;;;;;5049973;28;20232;-62
2023/12/23 00:25:26;;;;;;;1.50;1.40;;;7.10;78.20;;;;;;5039990;28;20229;-62
2023/12/23 00:27:52;;;;;;;1.60;1.50;;;7.10;78.90;;;;;;5050998;28;20221;-63
2023/12/23 00:30:19;;;;;;;1.40;1.40;;;7.10;79.00;;;;;;5043044;28;20275;-61
2023/12/23 00:32:46;;;;;;;1.40;1.40;;;7.10;78.30;;;;;;5044037;28;20224;-62
2023/12/23 00:35:13;;;;;;;1.43;1.33;;;7.10;78.40;;;;;;5048473;28;20228;-63
2023/12/23 00:37:39;;;;;;;1.30;1.30;;;7.10;77.60;;;;;;5043643;28;20623;-62
2023/12/23 00:40:06;;;;;;;1.50;1.50;;;7.20;77.70;;;;;;5040314;28;20213;-62
2023/12/23 00:42:32;;;;;;;1.70;1.63;;;7.10;77.50;;;;;;5042126;28;20297;-62
2023/12/23 00:44:59;;;;;;;1.40;1.40;;;7.10;77.40;;;;;;5040761;28;20250;-63
2023/12/23 00:47:25;;;;;;;1.43;1.33;;;7.20;77.20;;;;;;5051558;28;20216;-62
2023/12/23 00:49:52;;;;;;;1.57;1.47;;;7.20;77.10;;;;;;5042914;28;20239;-62
2023/12/23 00:52:19;;;;;;;1.70;1.70;;;7.10;78.50;;;;;;5051281;28;20215;-62
2023/12/23 00:54:45;;;;;;;2.50;1.33;;;7.10;79.70;;;;;;5049344;28;20606;-63
2023/12/23 00:57:12;;;;;;;1.50;1.40;;;7.10;80.20;;;;;;5037316;28;20242;-62
2023/12/23 00:59:38;;;;;;;1.60;1.50;;;7.00;78.80;;;;;;5048495;28;20705;-61
2023/12/23 01:02:05;;;;;;;1.50;1.50;;;7.10;78.50;;;;;;5031556;28;20265;-61
2023/12/23 01:04:31;;;;;;;1.27;1.27;;;7.00;80.30;;;;;;5045769;28;20204;-62
2023/12/23 01:06:58;;;;;;;1.23;1.23;;;7.00;80.40;;;;;;5040447;28;20244;-62
2023/12/23 01:09:24;;;;;;;1.73;1.30;;;7.00;80.20;;;;;;5045971;28;20208;-62
2023/12/23 01:11:51;;;;;;;1.53;1.43;;;7.00;77.50;;;;;;5050028;28;20243;-63
2023/12/23 01:14:18;;;;;;;1.80;1.70;;;7.10;77.90;;;;;;5050349;28;20210;-62
2023/12/23 01:16:44;;;;;;;1.63;1.63;;;7.10;76.80;;;;;;5043611;28;20226;-62
2023/12/23 01:19:11;;;;;;;1.23;1.23;;;7.10;76.00;;;;;;5049255;28;20259;-63
2023/12/23 01:21:37;;;;;;;1.43;1.30;;;7.10;75.70;;;;;;5045609;28;20247;-62
2023/12/23 01:24:04;;;;;;;1.37;1.33;;;7.10;75.10;;;;;;5032094;28;20238;-61
2023/12/23 01:26:30;;;;;;;1.13;1.13;;;7.10;76.20;;;;;;5050053;28;20235;-62
2023/12/23 01:29:00;;;;;;;1.30;1.30;;;7.00;76.80;;;;;;5041835;28;20239;-63
2023/12/23 01:31:26;;;;;;;2.23;1.50;;;7.00;76.00;;;;;;5049818;28;20259;-62
2023/12/23 01:33:53;;;;;;;1.37;1.37;;;7.10;74.80;;;;;;5042986;28;20205;-63
2023/12/23 01:36:19;;;;;;;2.00;1.50;;;7.10;75.30;;;;;;5048875;28;20221;-63
2023/12/23 01:38:46;;;;;;;1.33;1.27;;;7.10;74.50;;;;;;5042530;28;20207;-63
2023/12/23 01:41:12;;;;;;;1.47;1.40;;;7.00;74.40;;;;;;5048476;28;20259;-60
2023/12/23 01:43:39;;;;;;;1.30;1.30;;;7.10;74.60;;;;;;5053270;28;20232;-63
2023/12/23 01:46:05;;;;;;;1.60;1.50;;;7.20;74.30;;;;;;5045897;28;20288;-62
2023/12/23 01:48:32;;;;;;;1.37;1.30;;;7.20;73.50;;;;;;5043391;28;20208;-63
2023/12/23 01:50:59;;;;;;;1.43;1.30;;;7.10;72.90;;;;;;5045972;28;20220;-63
2023/12/23 01:53:24;;;;;;;1.47;1.33;;;7.10;72.90;;;;;;5054992;28;20215;-63
2023/12/23 01:55:51;;;;;;;1.40;1.30;;;7.10;73.60;;;;;;5045978;28;20235;-63
2023/12/23 01:58:17;;;;;;;1.30;1.30;;;7.10;73.60;;;;;;5041191;28;20706;-62
2023/12/23 02:00:44;;;;;;;1.30;1.20;;;7.00;74.40;;;;;;5042506;28;20214;-63
2023/12/23 02:03:10;;;;;;;1.40;1.40;;;7.00;76.70;;;;;;5046981;28;20753;-63
2023/12/23 02:05:37;;;;;;;1.40;1.30;;;6.90;77.70;;;;;;5046564;28;20232;-63
2023/12/23 02:08:03;;;;;;;1.30;1.30;;;6.90;78.70;;;;;;5042746;28;20646;-63
2023/12/23 02:10:30;;;;;;;1.33;1.33;;;6.90;77.40;;;;;;5051193;28;20260;-61
2023/12/23 02:12:57;;;;;;;1.50;1.40;;;6.80;78.60;;;;;;5053350;28;20262;-62
2023/12/23 02:15:24;;;;;;;1.40;1.27;;;6.80;78.50;;;;;;5045675;28;20228;-62
2023/12/23 02:17:51;;;;;;;1.33;1.33;;;6.80;79.60;;;;;;5049294;28;20246;-62
2023/12/23 02:20:17;;;;;;;1.60;1.60;;;6.80;79.00;;;;;;5054305;28;20216;-63
2023/12/23 02:22:44;;;;;;;1.40;1.40;;;6.80;80.20;;;;;;5052733;28;20795;-63
2023/12/23 02:25:10;;;;;;;1.43;1.43;;;6.80;80.30;;;;;;5045464;28;20232;-62
2023/12/23 02:27:37;;;;;;;1.40;1.30;;;6.80;79.80;;;;;;5041731;28;20244;-61
2023/12/23 02:30:03;;;;;;;1.50;1.40;;;6.70;80.10;;;;;;5045023;28;20216;-62
2023/12/23 02:32:30;;;;;;;1.47;1.47;;;6.70;82.30;;;;;;5041363;28;20289;-63
2023/12/23 02:34:56;;;;;;;1.50;1.50;;;6.70;80.60;;;;;;5048813;28;20600;-62
2023/12/23 02:37:23;;;;;;;1.30;1.30;;;6.70;81.60;;;;;;5046114;28;20286;-62
2023/12/23 02:39:49;;;;;;;1.40;1.30;;;6.60;82.50;;;;;;5051694;28;20775;-61
2023/12/23 02:42:16;;;;;;;1.23;1.23;;;6.60;83.20;;;;;;5049018;28;20234;-62
2023/12/23 02:44:42;;;;;;;1.40;1.40;;;6.60;82.70;;;;;;5051585;28;20260;-63
2023/12/23 02:47:09;;;;;;;1.37;1.37;;;6.60;82.80;;;;;;5042553;28;20196;-62
2023/12/23 02:49:35;;;;;;;1.77;1.40;;;6.60;82.40;;;;;;5035449;28;21343;-62
2023/12/23 02:52:02;;;;;;;1.20;1.20;;;6.70;80.40;;;;;;5048691;28;20233;-63
2023/12/23 02:54:28;;;;;;;1.60;1.50;;;6.70;80.70;;;;;;5041442;28;20198;-62
2023/12/23 02:56:55;;;;;;;1.30;1.30;;;6.70;79.40;;;;;;5044901;28;20213;-62
2023/12/23 02:59:21;;;;;;;1.50;1.40;;;6.70;79.50;;;;;;5045009;28;20682;-65
2023/12/23 03:01:48;;;;;;;1.30;1.30;;;6.70;80.10;;;;;;5046355;28;20196;-63
2023/12/23 03:04:14;;;;;;;1.40;1.40;;;6.70;81.10;;;;;;5053748;28;20272;-63
2023/12/23 03:06:41;;;;;;;1.37;1.37;;;6.70;79.10;;;;;;5051845;28;20270;-61
2023/12/23 03:09:07;;;;;;;1.40;1.40;;;6.60;79.40;;;;;;5045247;28;20246;-62
2023/12/23 03:11:36;;;;;;;1.40;1.40;;;6.70;80.70;;;;;;5048818;28;20214;-63
2023/12/23 03:14:03;;;;;;;1.37;1.37;;;6.60;79.90;;;;;;5042696;28;20203;-62
2023/12/23 03:16:33;;;;;;;1.50;1.40;;;6.60;79.90;;;;;;5032681;28;20252;-62
2023/12/23 03:19:00;;;;;;;1.17;1.07;;;6.60;79.90;;;;;;5043017;28;20212;-62
2023/12/23 03:21:26;;;;;;;1.50;1.50;;;6.60;79.80;;;;;;5052850;28;20209;-64
2023/12/23 03:23:53;;;;;;;1.50;1.40;;;6.60;78.80;;;;;;5040090;28;20640;-64
2023/12/23 03:26:19;;;;;;;1.40;1.40;;;6.60;79.50;;;;;;5043327;28;20247;-59
2023/12/23 03:28:46;;;;;;;1.10;1.10;;;6.60;79.30;;;;;;5042616;28;20213;-64
2023/12/23 03:31:12;;;;;;;1.30;1.30;;;6.60;78.40;;;;;;5043703;28;20208;-61
2023/12/23 03:33:39;;;;;;;1.50;1.50;;;6.50;79.60;;;;;;5037894;28;20236;-64
2023/12/23 03:36:05;;;;;;;1.30;1.30;;;6.60;77.40;;;;;;5045016;28;20300;-64
2023/12/23 03:38:32;;;;;;;1.23;1.23;;;6.60;77.80;;;;;;5044541;28;20795;-64
2023/12/23 03:40:59;;;;;;;1.30;1.30;;;6.50;78.80;;;;;;5045506;28;20247;-63
2023/12/23 03:43:25;;;;;;;1.17;1.17;;;6.60;77.80;;;;;;5045524;28;20229;-64
2023/12/23 03:45:52;;;;;;;1.33;1.33;;;6.60;78.40;;;;;;5051010;28;20305;-64
2023/12/23 03:48:18;;;;;;;1.10;1.10;;;6.50;78.40;;;;;;5049290;28;20644;-63
2023/12/23 03:50:45;;;;;;;1.60;1.50;;;6.50;77.40;;;;;;5043985;28;20240;-62
2023/12/23 03:53:12;;;;;;;1.13;1.13;;;6.60;77.30;;;;;;5047806;28;20202;-61
2023/12/23 03:55:39;;;;;;;1.30;1.30;;;6.60;78.10;;;;;;5044631;28;20267;-63
2023/12/23 03:58:05;;;;;;;1.40;1.40;;;6.50;78.80;;;;;;5054591;28;20271;-62
2023/12/23 04:00:32;;;;;;;1.20;1.20;;;6.60;77.70;;;;;;5051949;28;20223;-63
2023/12/23 04:02:58;;;;;;;1.80;1.60;;;6.60;77.50;;;;;;5043835;28;20220;-63
2023/12/23 04:05:25;;;;;;;1.40;1.40;;;6.60;78.40;;;;;;5036531;28;20414;-63
2023/12/23 04:07:51;;;;;;;1.30;1.30;;;6.60;78.10;;;;;;5046401;28;20212;-63
2023/12/23 04:10:18;;;;;;;1.33;1.33;;;6.70;76.80;;;;;;5053520;28;20241;-63
2023/12/23 04:12:45;;;;;;;1.50;1.50;;;6.70;76.60;;;;;;5044711;28;20258;-64
2023/12/23 04:15:11;;;;;;;1.53;1.53;;;6.70;76.80;;;;;;5045062;28;20228;-63
2023/12/23 04:17:38;;;;;;;1.50;1.50;;;6.70;76.80;;;;;;5050783;28;20236;-64
2023/12/23 04:20:05;;;;;;;1.30;1.20;;;6.70;76.90;;;;;;5040842;28;20259;-63
2023/12/23 04:22:31;;;;;;;1.57;1.57;;;6.70;77.40;;;;;;5039999;28;20289;-63
2023/12/23 04:24:58;;;;;;;1.60;1.60;;;6.60;77.30;;;;;;5039001;28;20320;-63
2023/12/23 04:27:25;;;;;;;1.50;1.40;;;6.60;75.70;;;;;;5043700;28;20254;-63
2023/12/23 04:29:51;;;;;;;1.33;1.27;;;6.60;76.80;;;;;;5047302;28;20267;-64
2023/12/23 04:32:18;;;;;;;1.57;1.47;;;6.60;77.70;;;;;;5048688;28;20730;-64
2023/12/23 04:34:44;;;;;;;1.10;1.10;;;6.60;77.50;;;;;;5049439;28;20229;-64
2023/12/23 04:37:11;;;;;;;1.20;1.20;;;6.50;77.40;;;;;;5051612;28;20211;-63
2023/12/23 04:39:37;;;;;;;1.30;1.30;;;6.50;77.80;;;;;;5042954;28;20204;-63
2023/12/23 04:42:04;;;;;;;1.30;1.30;;;6.50;76.60;;;;;;5047384;28;20705;-63
2023/12/23 04:44:30;;;;;;;1.30;1.30;;;6.50;76.90;;;;;;5036072;28;20223;-64
2023/12/23 04:46:57;;;;;;;1.53;1.50;;;6.50;77.50;;;;;;5050637;28;20629;-63
2023/12/23 04:49:24;;;;;;;1.50;1.50;;;6.50;77.70;;;;;;5042563;28;20237;-63
2023/12/23 04:51:50;;;;;;;1.30;1.30;;;6.40;77.80;;;;;;5043550;28;20205;-64
2023/12/23 04:54:17;;;;;;;1.40;1.37;;;6.50;78.10;;;;;;5051396;28;20230;-63
2023/12/23 04:56:43;;;;;;;1.30;1.30;;;6.50;77.70;;;;;;5034947;28;20258;-63
2023/12/23 04:59:10;;;;;;;1.40;1.40;;;6.50;77.50;;;;;;5037510;28;20237;-61
2023/12/23 05:01:37;;;;;;;1.60;1.50;;;6.50;77.60;;;;;;5048981;28;20256;-64
2023/12/23 05:04:03;;;;;;;1.30;1.30;;;6.50;76.40;;;;;;5046642;28;20695;-63
2023/12/23 05:06:30;;;;;;;1.20;1.20;;;6.50;76.70;;;;;;5051269;28;20251;-63
2023/12/23 05:08:56;;;;;;;1.30;1.30;;;6.50;77.20;;;;;;5051325;28;20211;-63
2023/12/23 05:11:22;;;;;;;1.30;1.30;;;6.50;78.40;;;;;;5042953;28;20267;-63
2023/12/23 05:13:49;;;;;;;1.10;1.10;;;6.40;78.00;;;;;;5049589;28;20250;-63
2023/12/23 05:16:15;;;;;;;1.20;1.20;;;6.50;77.70;;;;;;5038605;28;20227;-63
2023/12/23 05:18:42;;;;;;;1.37;1.37;;;6.50;77.40;;;;;;5041217;28;20259;-64
2023/12/23 05:21:09;;;;;;;1.30;1.30;;;6.50;78.00;;;;;;5050754;28;20266;-64
2023/12/23 05:23:35;;;;;;;1.50;1.50;;;6.50;76.90;;;;;;5050629;28;20240;-61
2023/12/23 05:26:02;;;;;;;1.40;1.40;;;6.40;78.20;;;;;;5040290;28;20228;-63
2023/12/23 05:28:28;;;;;;;1.50;1.50;;;6.50;77.90;;;;;;5039735;28;20709;-64
2023/12/23 05:30:55;;;;;;;2.10;1.60;;;6.40;78.20;;;;;;5046311;28;20342;-64
2023/12/23 05:33:24;;;;;;;1.20;1.20;;;6.40;78.40;;;;;;5048807;28;20205;-64
2023/12/23 05:35:50;;;;;;;1.50;1.50;;;6.40;78.20;;;;;;5039463;28;20224;-64
2023/12/23 05:38:17;;;;;;;1.60;1.50;;;6.50;78.20;;;;;;5043177;28;20638;-64
2023/12/23 05:40:43;;;;;;;1.60;1.50;;;6.40;78.30;;;;;;5049944;28;20212;-63
2023/12/23 05:43:10;;;;;;;1.50;1.50;;;6.40;78.00;;;;;;5041191;28;20230;-64
2023/12/23 05:45:37;;;;;;;1.30;1.30;;;6.40;78.60;;;;;;5033089;28;20544;-64
2023/12/23 05:48:04;;;;;;;1.37;1.37;;;6.40;78.20;;;;;;5042936;28;20605;-64
2023/12/23 05:50:31;;;;;;;1.50;1.40;;;6.40;77.60;;;;;;5047821;28;20214;-63
2023/12/23 05:52:57;;;;;;;1.23;1.23;;;6.40;77.60;;;;;;5042679;28;20640;-63
2023/12/23 05:55:24;;;;;;;1.20;1.20;;;6.40;78.80;;;;;;5050323;28;20272;-63
2023/12/23 05:57:49;;;;;;;1.30;1.30;;;6.40;78.30;;;;;;5050911;28;20252;-63
2023/12/23 06:00:16;;;;;;;1.50;1.40;;;6.40;77.70;;;;;;5047547;28;20602;-63
2023/12/23 06:02:42;;;;;;;1.20;1.20;;;6.40;78.20;;;;;;5046684;28;20261;-64
2023/12/23 06:05:09;;;;;;;1.20;1.20;;;6.40;78.20;;;;;;5037624;28;20250;-63
2023/12/23 06:07:35;;;;;;;1.30;1.30;;;6.40;78.20;;;;;;5038703;28;20254;-64
2023/12/23 06:10:02;;;;;;;1.20;1.20;;;6.40;78.40;;;;;;5042078;28;20239;-64
2023/12/23 06:12:28;;;;;;;1.27;1.27;;;6.40;77.50;;;;;;5049806;28;20272;-64
2023/12/23 06:14:57;;;;;;;1.30;1.30;;;6.40;78.20;;;;;;5049624;28;20251;-63
2023/12/23 06:17:24;;;;;;;1.30;1.30;;;6.40;78.20;;;;;;5039243;28;20211;-63
2023/12/23 06:19:50;;;;;;;1.30;1.30;;;6.40;77.60;;;;;;5037612;28;20625;-61
2023/12/23 06:22:17;;;;;;;1.53;1.43;;;6.40;77.50;;;;;;5045807;28;20266;-63
2023/12/23 06:24:44;;;;;;;1.30;1.30;;;6.40;78.20;;;;;;5047810;28;20260;-63
2023/12/23 06:27:10;;;;;;;1.30;1.30;;;6.40;77.70;;;;;;5043224;28;20219;-64
2023/12/23 06:29:37;;;;;;;1.47;1.47;;;6.40;78.30;;;;;;5042583;28;20670;-61
2023/12/23 06:32:04;;;;;;;1.40;1.30;;;6.40;78.20;;;;;;5047712;28;20217;-64
2023/12/23 06:34:30;;;;;;;1.40;1.40;;;6.40;78.20;;;;;;5044138;28;20207;-64
2023/12/23 06:36:57;;;;;;;1.50;1.50;;;6.40;78.70;;;;;;5043024;28;20204;-64
2023/12/23 06:39:24;;;;;;;1.47;1.47;;;6.40;78.20;;;;;;5048403;28;20240;-63
2023/12/23 06:41:50;;;;;;;1.33;1.33;;;6.30;79.40;;;;;;5039855;28;20201;-64
2023/12/23 06:44:17;;;;;;;1.60;1.50;;;6.40;78.90;;;;;;5048080;28;20264;-64
2023/12/23 06:46:43;;;;;;;1.63;1.43;;;6.30;79.90;;;;;;5041857;28;20723;-64
2023/12/23 06:49:10;;;;;;;1.40;1.30;;;6.30;78.90;;;;;;5050568;28;20216;-64
2023/12/23 06:51:36;;;;;;;1.30;1.30;;;6.30;79.50;;;;;;5044237;28;20212;-64
2023/12/23 06:54:03;;;;;;;1.33;1.33;;;6.30;79.50;;;;;;5045541;28;20262;-64
2023/12/23 06:56:29;;;;;;;2.20;1.43;;;6.30;80.60;;;;;;5047204;28;20235;-64
2023/12/23 06:58:56;;;;;;;1.47;1.47;;;6.30;80.00;;;;;;5046369;28;20645;-62
2023/12/23 07:01:22;;;;;;;1.40;1.30;;;6.30;80.30;;;;;;5047789;28;20246;-63
2023/12/23 07:03:49;;;;;;;1.60;1.50;;;6.20;80.70;;;;;;5035630;28;20646;-64
2023/12/23 07:06:15;;;;;;;1.40;1.40;;;6.30;80.30;;;;;;5048339;28;20266;-64
2023/12/23 07:08:42;;;;;;;1.53;1.17;;;6.20;79.50;;;;;;5043471;28;20222;-63
2023/12/23 07:11:08;;;;;;;1.43;1.43;;;6.30;80.90;;;;;;5045638;28;20443;-62
2023/12/23 07:13:35;;;;;;;1.60;1.50;;;6.30;79.80;;;;;;5053475;28;20625;-63
2023/12/23 07:16:01;;;;;;;1.43;1.40;;;6.30;80.30;;;;;;5041590;28;20252;-64
2023/12/23 07:18:28;;;;;;;1.50;1.50;;;6.30;81.00;;;;;;5047541;28;20628;-64
2023/12/23 07:20:55;;;;;;;1.40;1.40;;;6.30;80.90;;;;;;5048557;28;20262;-64
2023/12/23 07:23:21;;;;;;;1.57;1.40;;;6.40;79.90;;;;;;5048437;28;20308;-61
2023/12/23 07:25:48;;;;;;;2.70;1.67;;;6.40;80.00;;;;;;5044920;28;20267;-64
2023/12/23 07:28:14;;;;;;;1.50;1.50;;;6.30;79.70;;;;;;5044967;28;20266;-64
2023/12/23 07:30:44;;;;;;;2.20;1.50;;;6.30;79.80;;;;;;5039573;28;20620;-64
2023/12/23 07:33:11;;;;;;;1.50;1.50;;;6.40;79.00;;;;;;5045990;28;20601;-64
2023/12/23 07:35:37;;;;;;;1.60;1.60;;;6.40;79.40;;;;;;5050634;28;20243;-64
2023/12/23 07:38:04;;;;;;;1.63;1.50;;;6.40;79.50;;;;;;5045413;28;20609;-64
2023/12/23 07:40:30;;;;;;;1.73;1.50;;;6.40;77.90;;;;;;5047909;28;20212;-63
2023/12/23 07:42:58;;;;;;;1.60;1.60;;;6.40;78.00;;;;;;5042520;28;20196;-64
2023/12/23 07:45:24;;;;;;;1.60;1.60;;;6.40;78.00;;;;;;5047920;28;20240;-61
2023/12/23 07:47:51;;;;;;;1.27;1.27;;;6.50;78.00;;;;;;5039636;28;20210;-64
2023/12/23 07:50:17;;;;;;;1.50;1.50;;;6.40;78.00;;;;;;5045917;28;20234;-64
2023/12/23 07:52:44;;;;;;;1.33;1.33;;;6.40;77.50;;;;;;5041973;28;20688;-64
2023/12/23 07:55:11;;;;;;;1.37;1.37;;;6.50;76.70;;;;;;5048137;28;20228;-63
2023/12/23 07:57:37;;;;;;;1.70;1.60;;;6.50;75.60;;;;;;5041348;28;20284;-64
2023/12/23 08:00:06;;;;;;;1.20;1.20;;;6.50;75.40;;;;;;5037962;28;20205;-64
2023/12/23 08:02:32;;;;;;;1.17;1.17;;;6.50;75.10;;;;;;5043054;28;20295;-64
2023/12/23 08:04:59;;;;;;;1.30;1.30;;;6.50;75.80;;;;;;5029795;28;20355;-63
2023/12/23 08:07:25;;;;;;;1.50;1.50;;;6.50;76.80;;;;;;5041052;28;20208;-64
2023/12/23 08:09:52;;;;;;;1.70;1.60;;;6.50;77.50;;;;;;5043907;28;20266;-63
2023/12/23 08:12:18;;;;;;;1.60;1.60;;;6.50;77.70;;;;;;5043447;28;20227;-64
2023/12/23 08:14:45;;;;;;;1.70;1.60;;;6.60;76.70;;;;;;5047112;28;20235;-64
2023/12/23 08:17:11;;;;;;;1.50;1.47;;;6.60;79.20;;;;;;5047309;28;20262;-64
2023/12/23 08:19:38;;;;;;;1.43;1.40;;;6.70;78.20;;;;;;5044591;28;20226;-63
2023/12/23 08:22:05;;;;;;;1.30;1.30;;;6.60;76.20;;;;;;5035964;28;20208;-61
2023/12/23 08:24:31;;;;;;;1.43;1.40;;;6.60;75.20;;;;;;5038365;28;20220;-63
2023/12/23 08:26:58;;;;;;;1.37;1.37;;;6.60;74.60;;;;;;5037611;28;20291;-63
2023/12/23 08:29:25;;;;;;;1.30;1.30;;;6.60;74.50;;;;;;5047676;28;20298;-63
2023/12/23 08:31:51;;;;;;;1.50;1.50;;;6.60;74.30;;;;;;5041515;28;20258;-63
2023/12/23 08:34:18;;;;;;;1.53;1.50;;;6.60;74.70;;;;;;5042066;28;20586;-63
2023/12/23 08:36:44;;;;;;;1.60;1.60;;;6.60;74.00;;;;;;5039929;28;20274;-64
2023/12/23 08:39:11;;;;;;;1.33;1.30;;;6.60;74.00;;;;;;5042215;28;20213;-64
2023/12/23 08:41:37;;;;;;;1.30;1.30;;;6.70;74.00;;;;;;5050941;28;20200;-63
2023/12/23 08:44:04;;;;;;;1.53;1.53;;;6.70;74.00;;;;;;5046235;28;20591;-63
2023/12/23 08:46:31;;;;;;;1.43;1.33;;;6.70;74.10;;;;;;5043813;28;20730;-63
2023/12/23 08:48:57;;;;;;;1.23;1.23;;;6.60;74.00;;;;;;5040212;28;20235;-63
2023/12/23 08:51:24;;;;;;;1.50;1.40;;;6.60;74.10;;;;;;5032876;28;20243;-63
2023/12/23 08:53:50;;;;;;;1.73;1.63;;;6.70;73.30;;;;;;5038951;28;20220;-63
2023/12/23 08:56:17;;;;;;;1.47;1.47;;;6.60;74.00;;;;;;5045939;28;20233;-63
2023/12/23 08:58:44;;;;;;;1.40;1.40;;;6.60;73.00;;;;;;5045262;28;20211;-64
2023/12/23 09:01:10;;;;;;;1.60;1.50;;;6.60;71.70;;;;;;5047186;28;20214;-63
2023/12/23 09:03:37;;;;;;;1.40;1.40;;;6.70;71.30;;;;;;5044506;28;20248;-61
2023/12/23 09:06:06;;;;;;;1.60;1.43;;;6.80;71.90;;;;;;5045956;28;20699;-63
2023/12/23 09:08:33;;;;;;;1.73;1.40;;;6.70;71.40;;;;;;5045008;28;20262;-63
2023/12/23 09:11:00;;;;;;;1.50;1.50;;;6.80;71.70;;;;;;5041202;28;20763;-63
2023/12/23 09:13:26;;;;;;;1.63;1.57;;;6.80;71.20;;;;;;5041134;28;20216;-62
2023/12/23 09:15:53;;;;;;;1.20;1.20;;;6.80;70.80;;;;;;5048900;28;20252;-63
2023/12/23 09:18:19;;;;;;;1.50;1.50;;;6.90;70.30;;;;;;5050895;28;20276;-62
2023/12/23 09:20:46;;;;;;;1.53;1.53;;;6.90;68.90;;;;;;5040107;28;20294;-62
2023/12/23 09:23:12;;;;;;;1.70;1.60;;;6.90;69.00;;;;;;5044482;28;20204;-63
2023/12/23 09:25:39;;;;;;;1.33;1.33;;;6.90;68.90;;;;;;5032221;28;20787;-63
2023/12/23 09:28:05;;;;;;;1.20;1.20;;;7.00;67.40;;;;;;5039956;28;20199;-67
2023/12/23 09:30:32;;;;;;;1.40;1.40;;;7.00;67.10;;;;;;5045044;28;20235;-65
2023/12/23 09:32:58;;;;;;;1.27;1.27;;;7.00;67.80;;;;;;5041153;28;20709;-66
2023/12/23 09:35:25;;;;;;;1.40;1.40;;;7.10;66.90;;;;;;5043864;28;20236;-63
2023/12/23 09:37:51;;;;;;;1.40;1.40;;;7.00;67.50;;;;;;5044557;28;20236;-64
2023/12/23 09:40:18;;;;;;;1.20;1.20;;;7.00;66.80;;;;;;5044015;28;20259;-65
2023/12/23 09:42:44;;;;;;;1.60;1.50;;;7.00;65.40;;;;;;5033928;28;20217;-65
2023/12/23 09:45:11;;;;;;;1.40;1.40;;;7.20;65.50;;;;;;5036852;28;20233;-63
2023/12/23 09:47:37;;;;;;;1.67;1.30;;;7.20;64.30;;;;;;5048281;28;20260;-63
2023/12/23 09:50:04;;;;;;;1.30;1.30;;;7.30;64.90;;;;;;5048860;28;20211;-64
2023/12/23 09:52:31;;;;;;;1.40;1.30;;;7.20;64.30;;;;;;5043260;28;20244;-64
2023/12/23 09:54:57;;;;;;;1.30;1.30;;;7.20;63.50;;;;;;5048615;28;20243;-63
2023/12/23 09:57:24;;;;;;;1.30;1.30;;;7.20;63.70;;;;;;5036028;28;20205;-64
2023/12/23 09:59:51;;;;;;;1.20;1.20;;;7.30;64.10;;;;;;5044013;28;20205;-64
2023/12/23 10:02:17;;;;;;;1.20;1.20;;;7.30;63.80;;;;;;5046662;28;20324;-64
2023/12/23 10:04:43;;;;;;;1.10;1.10;;;7.30;63.00;;;;;;5051611;28;20260;-64
2023/12/23 10:07:10;;;;;;;1.73;1.30;;;7.30;63.00;;;;;;5048006;28;20245;-64
2023/12/23 10:09:37;;;;;;;1.30;1.30;;;7.40;62.80;;;;;;5042442;28;20214;-66
2023/12/23 10:12:03;;;;;;;1.20;1.20;;;7.40;62.00;;;;;;5019345;28;20947;-64
2023/12/23 10:14:30;;;;;;;1.23;1.23;;;7.40;62.00;;;;;;5042254;28;20210;-63
2023/12/23 10:16:56;;;;;;;1.40;1.40;;;7.40;62.30;;;;;;5048987;28;20275;-64
2023/12/23 10:19:24;;;;;;;1.47;1.47;;;7.40;62.40;;;;;;5045125;28;20632;-64
2023/12/23 10:21:50;;;;;;;1.83;1.73;;;7.40;61.50;;;;;;5049197;28;20305;-62
2023/12/23 10:24:17;;;;;;;1.60;1.50;;;7.50;61.90;;;;;;5043018;28;20209;-64
2023/12/23 10:26:43;;;;;;;1.23;1.23;;;7.40;61.60;;;;;;5043233;28;20224;-63
2023/12/23 10:29:10;;;;;;;1.30;1.30;;;7.40;61.80;;;;;;5045057;28;20233;-64
2023/12/23 10:31:36;;;;;;;1.40;1.40;;;7.40;62.00;;;;;;5049647;28;20220;-64
2023/12/23 10:34:03;;;;;;;1.27;1.27;;;7.50;62.40;;;;;;5043533;28;20679;-63
2023/12/23 10:36:30;;;;;;;1.40;1.40;;;7.50;61.40;;;;;;5032315;28;20764;-64
2023/12/23 10:38:56;;;;;;;1.20;1.20;;;7.50;61.20;;;;;;5043673;28;20237;-62
2023/12/23 10:41:23;;;;;;;1.40;1.40;;;7.60;61.40;;;;;;5053346;28;20263;-64
2023/12/23 10:43:49;;;;;;;1.30;1.30;;;7.50;60.60;;;;;;5045154;28;20650;-64
2023/12/23 10:46:16;;;;;;;1.37;1.37;;;7.60;61.30;;;;;;5049761;28;20236;-64
2023/12/23 10:48:42;;;;;;;1.20;1.20;;;7.60;60.30;;;;;;5044708;28;20268;-64
2023/12/23 10:51:09;;;;;;;1.30;1.30;;;7.70;60.60;;;;;;5037391;28;20288;-64
2023/12/23 10:53:35;;;;;;;1.77;1.67;;;7.70;60.10;;;;;;5045988;28;20736;-63
2023/12/23 10:56:02;;;;;;;1.30;1.30;;;7.80;59.90;;;;;;5041549;28;20268;-60
2023/12/23 10:58:28;;;;;;;1.17;1.17;;;7.80;60.00;;;;;;5040291;28;20210;-62
2023/12/23 11:00:55;;;;;;;1.30;1.30;;;7.80;60.20;;;;;;5044384;28;20215;-62
2023/12/23 11:03:22;;;;;;;1.30;1.30;;;7.80;59.20;;;;;;5042131;28;20208;-62
2023/12/23 11:05:48;;;;;;;1.23;1.23;;;7.80;59.20;;;;;;5043639;28;20722;-62
2023/12/23 11:08:15;;;;;;;1.57;1.40;;;7.80;59.60;;;;;;5041813;28;20209;-62
2023/12/23 11:10:41;;;;;;;1.40;1.40;;;7.80;58.70;;;;;;5045204;28;20209;-62
2023/12/23 11:13:09;;;;;;;1.40;1.40;;;7.80;58.90;;;;;;5038194;28;20213;-64
2023/12/23 11:15:35;;;;;;;1.33;1.33;;;7.80;58.80;;;;;;5044515;28;20678;-64
2023/12/23 11:18:02;;;;;;;1.47;1.37;;;7.80;59.20;;;;;;5039008;28;20218;-64
2023/12/23 11:20:28;;;;;;;1.40;1.30;;;7.80;59.10;;;;;;5045647;28;20211;-61
2023/12/23 11:22:55;;;;;;;1.33;1.23;;;7.70;58.90;;;;;;5035058;28;20206;-64
2023/12/23 11:25:22;;;;;;;1.30;1.30;;;7.70;58.80;;;;;;5042723;28;20240;-61
2023/12/23 11:27:48;;;;;;;1.40;1.40;;;7.70;59.00;;;;;;5043689;28;20271;-64
2023/12/23 11:30:15;;;;;;;1.40;1.30;;;7.70;59.60;;;;;;5050816;28;20290;-64
2023/12/23 11:32:41;;;;;;;1.60;1.50;;;7.70;59.20;;;;;;5043291;28;20207;-65
2023/12/23 11:35:08;;;;;;;1.50;1.50;;;7.70;58.40;;;;;;5043265;28;20773;-63
2023/12/23 11:37:34;;;;;;;1.30;1.30;;;7.70;58.40;;;;;;5042694;28;20236;-64
2023/12/23 11:40:02;;;;;;;1.50;1.50;;;7.70;58.30;;;;;;5047962;28;20213;-64
2023/12/23 11:42:29;;;;;;;1.33;1.33;;;7.80;58.60;;;;;;5045095;28;20213;-64
2023/12/23 11:44:55;;;;;;;1.17;1.17;;;7.80;57.50;;;;;;5050595;28;20715;-64
2023/12/23 11:47:22;;;;;;;1.50;1.40;;;7.80;57.60;;;;;;5043630;28;20224;-64
2023/12/23 11:49:49;;;;;;;1.33;1.33;;;7.80;58.30;;;;;;5048411;28;20205;-62
2023/12/23 11:52:15;;;;;;;1.60;1.50;;;7.80;57.80;;;;;;5045165;28;20772;-64
2023/12/23 11:54:44;;;;;;;1.60;1.50;;;7.80;57.60;;;;;;5052363;28;20205;-64
2023/12/23 11:57:10;;;;;;;1.50;1.40;;;7.80;57.30;;;;;;5049482;28;20206;-65
2023/12/23 11:59:37;;;;;;;1.20;1.20;;;7.80;57.00;;;;;;5048893;28;20237;-64
2023/12/23 12:02:03;;;;;;;1.33;1.23;;;7.80;57.20;;;;;;5042121;28;20229;-62
2023/12/23 12:04:30;;;;;;;1.30;1.30;;;7.90;57.10;;;;;;5022004;28;20210;-64
2023/12/23 12:06:56;;;;;;;1.33;1.30;;;7.80;57.10;;;;;;5048032;28;20225;-65
2023/12/23 12:09:25;;;;;;;1.30;1.30;;;7.80;57.00;;;;;;5044917;28;20718;-64
2023/12/23 12:11:52;;;;;;;1.40;1.40;;;7.80;56.70;;;;;;5035641;28;20212;-71
2023/12/23 12:14:18;;;;;;;1.50;1.50;;;7.70;57.00;;;;;;5040316;28;20615;-71
2023/12/23 12:16:45;;;;;;;1.33;1.30;;;7.80;58.10;;;;;;5046338;28;20580;-68
2023/12/23 12:19:13;;;;;;;1.40;1.40;;;7.80;57.10;;;;;;5045761;28;20592;-68
2023/12/23 12:21:39;;;;;;;1.40;1.40;;;7.80;56.80;;;;;;5044222;28;20209;-69
2023/12/23 12:24:06;;;;;;;1.20;1.20;;;7.80;56.50;;;;;;5041621;28;20747;-68
2023/12/23 12:26:33;;;;;;;1.50;1.50;;;7.80;57.00;;;;;;5032079;28;20229;-68
2023/12/23 12:28:59;;;;;;;1.40;1.40;;;7.80;56.90;;;;;;5040819;28;20217;-68
2023/12/23 12:31:26;;;;;;;1.40;1.30;;;7.90;57.10;;;;;;5043411;28;20268;-68
2023/12/23 12:33:52;;;;;;;1.50;1.40;;;7.90;57.10;;;;;;5049203;28;20223;-68
2023/12/23 12:36:20;;;;;;;1.30;1.30;;;7.90;57.10;;;;;;5033023;28;20216;-68
2023/12/23 12:38:46;;;;;;;1.47;1.30;;;7.90;57.10;;;;;;5040833;28;20230;-68
2023/12/23 12:41:13;;;;;;;1.60;1.50;;;7.80;56.80;;;;;;5043319;28;20248;-68
2023/12/23 12:43:40;;;;;;;2.17;1.30;;;7.80;56.70;;;;;;5021326;28;20695;-67
2023/12/23 12:46:06;;;;;;;1.47;1.47;;;7.80;57.00;;;;;;5045534;28;20675;-67
2023/12/23 12:48:33;;;;;;;1.20;1.20;;;7.80;57.00;;;;;;5047673;28;20216;-68
2023/12/23 12:50:59;;;;;;;1.43;1.20;;;7.80;57.00;;;;;;5051441;28;20662;-67
2023/12/23 12:53:26;;;;;;;1.33;1.20;;;7.80;57.00;;;;;;5034751;28;20334;-68